sensor_id;sensor_type;location;lat;lon;timestamp;pressure;altitude;pressure_sealevel;temperature;humidity
28927;BME280;16038;47.692;9.400;2022-10-16T00:01:08;96642.78;;;11.30;100.00
28927;BME280;16038;47.692;9.400;2022-10-16T00:03:35;96648.03;;;11.42;100.00
28927;BME280;16038;47.692;9.400;2022-10-16T00:06:01;96640.47;;;11.32;100.00
28927;BME280;16038;47.692;9.400;2022-10-16T00:08:27;96640.38;;;11.25;100.00
28927;BME280;16038;47.692;9.400;2022-10-16T00:10:52;96637.69;;;11.28;100.00
28927;BME280;16038;47.692;9.400;2022-10-16T00:13:24;96640.09;;;11.34;100.00
28927;BME280;16038;47.692;9.400;2022-10-16T00:15:49;96649.59;;;11.40;100.00
28927;BME280;16038;47.692;9.400;2022-10-16T00:18:14;96654.72;;;11.45;100.00
28927;BME280;16038;47.692;9.400;2022-10-16T00:20:40;96650.09;;;11.49;100.00
28927;BME280;16038;47.692;9.400;2022-10-16T00:23:06;96648.56;;;11.55;100.00
28927;BME280;16038;47.692;9.400;2022-10-16T00:25:32;96644.34;;;11.61;100.00
28927;BME280;16038;47.692;9.400;2022-10-16T00:28:01;96649.09;;;11.68;100.00
28927;BME280;16038;47.692;9.400;2022-10-16T00:30:26;96638.59;;;11.74;100.00
28927;BME280;16038;47.692;9.400;2022-10-16T00:32:53;96641.31;;;11.74;100.00
28927;BME280;16038;47.692;9.400;2022-10-16T00:35:18;96642.50;;;11.73;100.00
28927;BME280;16038;47.692;9.400;2022-10-16T00:37:44;96646.03;;;11.73;100.00
28927;BME280;16038;47.692;9.400;2022-10-16T00:40:10;96643.75;;;11.79;100.00
28927;BME280;16038;47.692;9.400;2022-10-16T00:42:35;96646.59;;;11.90;100.00
28927;BME280;16038;47.692;9.400;2022-10-16T00:45:02;96634.50;;;11.91;100.00
28927;BME280;16038;47.692;9.400;2022-10-16T00:50:11;96636.44;;;11.90;100.00
28927;BME280;16038;47.692;9.400;2022-10-16T00:52:43;96633.72;;;11.94;100.00
28927;BME280;16038;47.692;9.400;2022-10-16T00:55:09;96636.06;;;11.92;100.00
28927;BME280;16038;47.692;9.400;2022-10-16T00:57:36;96629.72;;;11.88;100.00
28927;BME280;16038;47.692;9.400;2022-10-16T01:00:06;96631.28;;;11.85;100.00
28927;BME280;16038;47.692;9.400;2022-10-16T01:02:32;96634.03;;;11.85;100.00
28927;BME280;16038;47.692;9.400;2022-10-16T01:04:58;96638.03;;;11.91;100.00
28927;BME280;16038;47.692;9.400;2022-10-16T01:10:40;96646.66;;;11.93;100.00
28927;BME280;16038;47.692;9.400;2022-10-16T01:13:12;96642.00;;;11.97;100.00
28927;BME280;16038;47.692;9.400;2022-10-16T01:16:06;96640.88;;;12.02;100.00
28927;BME280;16038;47.692;9.400;2022-10-16T01:18:37;96629.41;;;11.93;100.00
28927;BME280;16038;47.692;9.400;2022-10-16T01:21:27;96635.28;;;11.91;100.00
28927;BME280;16038;47.692;9.400;2022-10-16T01:32:11;96643.53;;;11.95;100.00
28927;BME280;16038;47.692;9.400;2022-10-16T01:34:49;96647.88;;;11.96;100.00
28927;BME280;16038;47.692;9.400;2022-10-16T01:37:22;96648.25;;;11.94;100.00
28927;BME280;16038;47.692;9.400;2022-10-16T01:39:55;96646.28;;;11.95;100.00
28927;BME280;16038;47.692;9.400;2022-10-16T01:42:37;96644.00;;;12.00;100.00
28927;BME280;16038;47.692;9.400;2022-10-16T01:45:05;96649.94;;;12.06;100.00
28927;BME280;16038;47.692;9.400;2022-10-16T01:47:33;96656.97;;;12.03;100.00
28927;BME280;16038;47.692;9.400;2022-10-16T01:50:02;96649.09;;;12.02;100.00
28927;BME280;16038;47.692;9.400;2022-10-16T01:52:33;96642.03;;;12.01;100.00
28927;BME280;16038;47.692;9.400;2022-10-16T01:55:02;96649.84;;;11.99;100.00
28927;BME280;16038;47.692;9.400;2022-10-16T01:57:29;96655.41;;;12.06;100.00
28927;BME280;16038;47.692;9.400;2022-10-16T02:00:00;96655.44;;;12.10;100.00
28927;BME280;16038;47.692;9.400;2022-10-16T02:02:28;96673.06;;;12.05;100.00
28927;BME280;16038;47.692;9.400;2022-10-16T02:05:05;96658.41;;;11.94;100.00
28927;BME280;16038;47.692;9.400;2022-10-16T02:07:36;96672.53;;;11.92;100.00
28927;BME280;16038;47.692;9.400;2022-10-16T02:10:02;96673.63;;;11.88;100.00
28927;BME280;16038;47.692;9.400;2022-10-16T02:12:31;96669.41;;;11.94;100.00
28927;BME280;16038;47.692;9.400;2022-10-16T02:14:58;96664.72;;;11.94;100.00
28927;BME280;16038;47.692;9.400;2022-10-16T02:17:24;96661.56;;;11.92;100.00
28927;BME280;16038;47.692;9.400;2022-10-16T02:19:52;96663.06;;;11.90;100.00
28927;BME280;16038;47.692;9.400;2022-10-16T02:22:43;96663.19;;;12.00;100.00
28927;BME280;16038;47.692;9.400;2022-10-16T02:25:31;96652.28;;;12.08;100.00
28927;BME280;16038;47.692;9.400;2022-10-16T02:28:06;96655.84;;;12.12;100.00
28927;BME280;16038;47.692;9.400;2022-10-16T02:30:53;96662.09;;;12.05;100.00
28927;BME280;16038;47.692;9.400;2022-10-16T02:33:21;96657.34;;;12.02;100.00
28927;BME280;16038;47.692;9.400;2022-10-16T02:35:48;96654.94;;;11.97;100.00
28927;BME280;16038;47.692;9.400;2022-10-16T02:38:17;96649.81;;;11.95;100.00
28927;BME280;16038;47.692;9.400;2022-10-16T02:40:43;96655.38;;;12.02;100.00
28927;BME280;16038;47.692;9.400;2022-10-16T02:43:09;96646.91;;;12.18;100.00
28927;BME280;16038;47.692;9.400;2022-10-16T02:45:35;96646.47;;;12.13;100.00
28927;BME280;16038;47.692;9.400;2022-10-16T02:48:01;96648.03;;;12.10;100.00
28927;BME280;16038;47.692;9.400;2022-10-16T02:50:26;96665.31;;;12.14;100.00
28927;BME280;16038;47.692;9.400;2022-10-16T02:52:52;96658.25;;;12.17;100.00
28927;BME280;16038;47.692;9.400;2022-10-16T02:55:17;96649.00;;;12.32;100.00
28927;BME280;16038;47.692;9.400;2022-10-16T02:57:43;96633.16;;;12.15;100.00
28927;BME280;16038;47.692;9.400;2022-10-16T03:00:11;96645.22;;;12.03;100.00
28927;BME280;16038;47.692;9.400;2022-10-16T03:02:38;96645.94;;;12.00;100.00
28927;BME280;16038;47.692;9.400;2022-10-16T03:05:04;96653.38;;;11.96;100.00
28927;BME280;16038;47.692;9.400;2022-10-16T03:07:29;96663.16;;;11.97;100.00
28927;BME280;16038;47.692;9.400;2022-10-16T03:09:55;96670.09;;;12.21;100.00
28927;BME280;16038;47.692;9.400;2022-10-16T03:12:22;96669.28;;;12.20;100.00
28927;BME280;16038;47.692;9.400;2022-10-16T03:14:47;96669.63;;;12.15;100.00
28927;BME280;16038;47.692;9.400;2022-10-16T03:17:13;96671.19;;;12.13;100.00
28927;BME280;16038;47.692;9.400;2022-10-16T03:19:39;96663.97;;;12.01;100.00
28927;BME280;16038;47.692;9.400;2022-10-16T03:22:04;96657.56;;;11.90;100.00
28927;BME280;16038;47.692;9.400;2022-10-16T03:24:30;96650.03;;;11.79;100.00
28927;BME280;16038;47.692;9.400;2022-10-16T03:26:56;96643.03;;;11.85;100.00
28927;BME280;16038;47.692;9.400;2022-10-16T03:29:22;96639.34;;;11.71;100.00
28927;BME280;16038;47.692;9.400;2022-10-16T03:31:47;96623.84;;;11.52;100.00
28927;BME280;16038;47.692;9.400;2022-10-16T03:34:14;96639.84;;;11.46;100.00
28927;BME280;16038;47.692;9.400;2022-10-16T03:36:40;96652.41;;;11.47;100.00
28927;BME280;16038;47.692;9.400;2022-10-16T03:39:05;96653.94;;;11.44;100.00
28927;BME280;16038;47.692;9.400;2022-10-16T03:41:31;96648.41;;;11.41;100.00
28927;BME280;16038;47.692;9.400;2022-10-16T03:43:56;96666.53;;;11.49;100.00
28927;BME280;16038;47.692;9.400;2022-10-16T03:46:22;96663.94;;;11.60;100.00
28927;BME280;16038;47.692;9.400;2022-10-16T03:48:48;96676.13;;;11.66;100.00
28927;BME280;16038;47.692;9.400;2022-10-16T03:51:13;96665.94;;;11.66;100.00
28927;BME280;16038;47.692;9.400;2022-10-16T03:53:39;96668.59;;;11.59;100.00
28927;BME280;16038;47.692;9.400;2022-10-16T03:56:04;96669.44;;;11.63;100.00
28927;BME280;16038;47.692;9.400;2022-10-16T03:58:30;96678.09;;;11.65;100.00
28927;BME280;16038;47.692;9.400;2022-10-16T04:00:56;96680.50;;;11.71;100.00
28927;BME280;16038;47.692;9.400;2022-10-16T04:03:21;96681.38;;;11.78;100.00
28927;BME280;16038;47.692;9.400;2022-10-16T04:05:48;96684.03;;;11.71;100.00
28927;BME280;16038;47.692;9.400;2022-10-16T04:08:14;96683.94;;;11.64;100.00
28927;BME280;16038;47.692;9.400;2022-10-16T04:10:39;96706.53;;;11.54;100.00
28927;BME280;16038;47.692;9.400;2022-10-16T04:13:05;96692.28;;;11.41;100.00
28927;BME280;16038;47.692;9.400;2022-10-16T04:15:30;96701.34;;;11.45;100.00
28927;BME280;16038;47.692;9.400;2022-10-16T04:17:56;96704.28;;;11.29;100.00
28927;BME280;16038;47.692;9.400;2022-10-16T04:20:21;96698.59;;;11.15;100.00
28927;BME280;16038;47.692;9.400;2022-10-16T04:22:47;96693.75;;;11.04;100.00
28927;BME280;16038;47.692;9.400;2022-10-16T04:25:12;96694.06;;;10.99;100.00
28927;BME280;16038;47.692;9.400;2022-10-16T04:27:38;96699.50;;;10.96;100.00
28927;BME280;16038;47.692;9.400;2022-10-16T04:30:05;96698.75;;;10.99;100.00
28927;BME280;16038;47.692;9.400;2022-10-16T04:32:31;96697.38;;;10.85;100.00
28927;BME280;16038;47.692;9.400;2022-10-16T04:34:56;96699.44;;;10.92;100.00
28927;BME280;16038;47.692;9.400;2022-10-16T04:37:26;96695.66;;;11.00;100.00
28927;BME280;16038;47.692;9.400;2022-10-16T04:39:52;96700.38;;;11.03;100.00
28927;BME280;16038;47.692;9.400;2022-10-16T04:42:19;96701.31;;;11.11;100.00
28927;BME280;16038;47.692;9.400;2022-10-16T04:44:44;96700.59;;;11.18;100.00
28927;BME280;16038;47.692;9.400;2022-10-16T04:47:10;96697.16;;;11.24;100.00
28927;BME280;16038;47.692;9.400;2022-10-16T04:49:36;96704.59;;;11.24;100.00
28927;BME280;16038;47.692;9.400;2022-10-16T04:52:01;96709.22;;;11.20;100.00
28927;BME280;16038;47.692;9.400;2022-10-16T04:54:27;96706.47;;;11.20;100.00
28927;BME280;16038;47.692;9.400;2022-10-16T04:56:53;96705.66;;;11.16;100.00
28927;BME280;16038;47.692;9.400;2022-10-16T04:59:19;96708.03;;;11.17;100.00
28927;BME280;16038;47.692;9.400;2022-10-16T05:01:45;96704.56;;;11.20;100.00
28927;BME280;16038;47.692;9.400;2022-10-16T05:04:10;96709.72;;;11.25;100.00
28927;BME280;16038;47.692;9.400;2022-10-16T05:06:37;96713.28;;;11.29;100.00
28927;BME280;16038;47.692;9.400;2022-10-16T05:09:05;96712.56;;;11.33;100.00
28927;BME280;16038;47.692;9.400;2022-10-16T05:11:31;96716.09;;;11.33;100.00
28927;BME280;16038;47.692;9.400;2022-10-16T05:13:56;96716.13;;;11.37;100.00
28927;BME280;16038;47.692;9.400;2022-10-16T05:16:22;96724.72;;;11.35;100.00
28927;BME280;16038;47.692;9.400;2022-10-16T05:18:47;96717.22;;;11.32;100.00
28927;BME280;16038;47.692;9.400;2022-10-16T05:21:13;96721.38;;;11.19;100.00
28927;BME280;16038;47.692;9.400;2022-10-16T05:23:38;96725.31;;;11.21;100.00
28927;BME280;16038;47.692;9.400;2022-10-16T05:26:04;96712.47;;;11.25;100.00
28927;BME280;16038;47.692;9.400;2022-10-16T05:28:30;96722.31;;;11.30;100.00
28927;BME280;16038;47.692;9.400;2022-10-16T05:30:56;96723.91;;;11.31;100.00
28927;BME280;16038;47.692;9.400;2022-10-16T05:33:23;96728.50;;;11.27;100.00
28927;BME280;16038;47.692;9.400;2022-10-16T05:35:50;96729.69;;;11.26;100.00
28927;BME280;16038;47.692;9.400;2022-10-16T05:38:16;96735.59;;;11.28;100.00
28927;BME280;16038;47.692;9.400;2022-10-16T05:40:42;96733.69;;;11.32;100.00
28927;BME280;16038;47.692;9.400;2022-10-16T05:43:08;96737.09;;;11.22;100.00
28927;BME280;16038;47.692;9.400;2022-10-16T05:45:34;96735.44;;;10.90;100.00
28927;BME280;16038;47.692;9.400;2022-10-16T05:47:59;96729.59;;;10.69;100.00
28927;BME280;16038;47.692;9.400;2022-10-16T05:50:26;96735.22;;;10.53;100.00
28927;BME280;16038;47.692;9.400;2022-10-16T05:52:51;96739.34;;;10.43;100.00
28927;BME280;16038;47.692;9.400;2022-10-16T05:55:17;96748.34;;;10.44;100.00
28927;BME280;16038;47.692;9.400;2022-10-16T05:57:42;96751.53;;;10.46;100.00
28927;BME280;16038;47.692;9.400;2022-10-16T06:00:08;96761.88;;;10.56;100.00
28927;BME280;16038;47.692;9.400;2022-10-16T06:02:34;96757.47;;;10.75;100.00
28927;BME280;16038;47.692;9.400;2022-10-16T06:04:59;96758.84;;;10.84;100.00
28927;BME280;16038;47.692;9.400;2022-10-16T06:07:25;96763.72;;;10.98;100.00
28927;BME280;16038;47.692;9.400;2022-10-16T06:09:52;96760.03;;;10.87;100.00
28927;BME280;16038;47.692;9.400;2022-10-16T06:12:18;96757.13;;;10.76;100.00
28927;BME280;16038;47.692;9.400;2022-10-16T06:14:45;96765.94;;;10.89;100.00
28927;BME280;16038;47.692;9.400;2022-10-16T06:17:13;96763.72;;;10.98;100.00
28927;BME280;16038;47.692;9.400;2022-10-16T06:19:39;96761.84;;;11.02;100.00
28927;BME280;16038;47.692;9.400;2022-10-16T06:22:04;96762.53;;;11.22;100.00
28927;BME280;16038;47.692;9.400;2022-10-16T06:24:30;96767.97;;;11.45;100.00
28927;BME280;16038;47.692;9.400;2022-10-16T06:26:55;96770.97;;;11.63;100.00
28927;BME280;16038;47.692;9.400;2022-10-16T06:29:21;96774.31;;;11.80;100.00
28927;BME280;16038;47.692;9.400;2022-10-16T06:31:46;96774.66;;;11.78;100.00
28927;BME280;16038;47.692;9.400;2022-10-16T06:34:12;96768.66;;;11.96;100.00
28927;BME280;16038;47.692;9.400;2022-10-16T06:36:38;96773.16;;;12.15;100.00
28927;BME280;16038;47.692;9.400;2022-10-16T06:39:05;96772.72;;;12.88;100.00
28927;BME280;16038;47.692;9.400;2022-10-16T06:41:33;96775.63;;;13.68;100.00
28927;BME280;16038;47.692;9.400;2022-10-16T06:43:59;96787.00;;;14.58;100.00
28927;BME280;16038;47.692;9.400;2022-10-16T06:46:25;96784.63;;;15.75;100.00
28927;BME280;16038;47.692;9.400;2022-10-16T06:48:52;96783.38;;;16.05;100.00
28927;BME280;16038;47.692;9.400;2022-10-16T06:51:23;96785.72;;;16.80;100.00
28927;BME280;16038;47.692;9.400;2022-10-16T06:53:51;96781.09;;;15.67;100.00
28927;BME280;16038;47.692;9.400;2022-10-16T06:56:19;96780.38;;;15.17;100.00
28927;BME280;16038;47.692;9.400;2022-10-16T06:58:46;96792.50;;;14.54;100.00
28927;BME280;16038;47.692;9.400;2022-10-16T07:01:13;96796.31;;;14.10;100.00
28927;BME280;16038;47.692;9.400;2022-10-16T07:03:41;96799.00;;;14.00;100.00
28927;BME280;16038;47.692;9.400;2022-10-16T07:06:08;96807.66;;;14.02;100.00
28927;BME280;16038;47.692;9.400;2022-10-16T07:08:36;96813.31;;;14.34;100.00
28927;BME280;16038;47.692;9.400;2022-10-16T07:11:08;96813.69;;;14.29;100.00
28927;BME280;16038;47.692;9.400;2022-10-16T07:13:35;96823.56;;;14.37;100.00
28927;BME280;16038;47.692;9.400;2022-10-16T07:16:05;96825.16;;;14.49;100.00
28927;BME280;16038;47.692;9.400;2022-10-16T07:18:31;96834.22;;;14.57;100.00
28927;BME280;16038;47.692;9.400;2022-10-16T07:21:09;96832.75;;;14.77;100.00
28927;BME280;16038;47.692;9.400;2022-10-16T07:23:36;96838.69;;;15.01;100.00
28927;BME280;16038;47.692;9.400;2022-10-16T07:26:02;96845.81;;;15.31;100.00
28927;BME280;16038;47.692;9.400;2022-10-16T07:28:28;96841.84;;;15.35;100.00
28927;BME280;16038;47.692;9.400;2022-10-16T07:30:54;96846.53;;;14.81;100.00
28927;BME280;16038;47.692;9.400;2022-10-16T07:33:20;96848.13;;;15.10;100.00
28927;BME280;16038;47.692;9.400;2022-10-16T07:35:53;96855.19;;;14.79;100.00
28927;BME280;16038;47.692;9.400;2022-10-16T07:38:20;96858.34;;;14.78;100.00
28927;BME280;16038;47.692;9.400;2022-10-16T07:40:47;96865.06;;;14.77;100.00
28927;BME280;16038;47.692;9.400;2022-10-16T07:43:13;96860.72;;;14.90;100.00
28927;BME280;16038;47.692;9.400;2022-10-16T07:45:47;96854.06;;;15.09;100.00
28927;BME280;16038;47.692;9.400;2022-10-16T07:48:13;96863.94;;;15.35;100.00
28927;BME280;16038;47.692;9.400;2022-10-16T07:50:39;96870.22;;;15.46;100.00
28927;BME280;16038;47.692;9.400;2022-10-16T07:53:04;96868.66;;;15.45;100.00
28927;BME280;16038;47.692;9.400;2022-10-16T07:55:29;96871.81;;;15.44;100.00
28927;BME280;16038;47.692;9.400;2022-10-16T07:57:55;96870.66;;;15.52;100.00
28927;BME280;16038;47.692;9.400;2022-10-16T08:00:20;96869.03;;;15.87;100.00
28927;BME280;16038;47.692;9.400;2022-10-16T08:02:46;96855.09;;;17.11;100.00
28927;BME280;16038;47.692;9.400;2022-10-16T08:05:12;96869.25;;;18.14;100.00
28927;BME280;16038;47.692;9.400;2022-10-16T08:07:37;96879.03;;;18.61;100.00
28927;BME280;16038;47.692;9.400;2022-10-16T08:10:03;96873.81;;;17.94;100.00
28927;BME280;16038;47.692;9.400;2022-10-16T08:12:29;96885.50;;;17.71;100.00
28927;BME280;16038;47.692;9.400;2022-10-16T08:14:55;96888.13;;;18.61;100.00
28927;BME280;16038;47.692;9.400;2022-10-16T08:17:20;96894.84;;;20.20;100.00
28927;BME280;16038;47.692;9.400;2022-10-16T08:19:46;96898.34;;;19.80;100.00
28927;BME280;16038;47.692;9.400;2022-10-16T08:22:13;96897.66;;;19.96;100.00
28927;BME280;16038;47.692;9.400;2022-10-16T08:24:39;96900.09;;;20.98;98.29
28927;BME280;16038;47.692;9.400;2022-10-16T08:27:05;96901.03;;;20.91;100.00
28927;BME280;16038;47.692;9.400;2022-10-16T08:29:31;96905.72;;;21.31;95.15
28927;BME280;16038;47.692;9.400;2022-10-16T08:31:56;96899.91;;;22.07;92.10
28927;BME280;16038;47.692;9.400;2022-10-16T08:34:22;96897.41;;;23.26;80.42
28927;BME280;16038;47.692;9.400;2022-10-16T08:39:13;96907.69;;;22.75;90.26
28927;BME280;16038;47.692;9.400;2022-10-16T08:45:05;96912.91;;;23.40;76.48
28927;BME280;16038;47.692;9.400;2022-10-16T08:48:04;96920.97;;;21.06;87.32
28927;BME280;16038;47.692;9.400;2022-10-16T08:50:37;96927.06;;;21.37;90.45
28927;BME280;16038;47.692;9.400;2022-10-16T08:53:04;96918.16;;;23.64;76.24
28927;BME280;16038;47.692;9.400;2022-10-16T08:55:41;96914.16;;;24.60;68.67
28927;BME280;16038;47.692;9.400;2022-10-16T08:58:16;96931.00;;;25.86;63.54
28927;BME280;16038;47.692;9.400;2022-10-16T09:00:46;96926.50;;;24.15;70.26
28927;BME280;16038;47.692;9.400;2022-10-16T09:08:55;96947.38;;;24.36;68.45
28927;BME280;16038;47.692;9.400;2022-10-16T09:17:24;96953.84;;;27.36;54.46
28927;BME280;16038;47.692;9.400;2022-10-16T09:20:17;96958.47;;;27.57;52.98
28927;BME280;16038;47.692;9.400;2022-10-16T09:22:43;96955.97;;;25.52;57.46
28927;BME280;16038;47.692;9.400;2022-10-16T09:25:17;96958.63;;;23.21;69.37
28927;BME280;16038;47.692;9.400;2022-10-16T09:27:48;96957.63;;;22.85;73.26
28927;BME280;16038;47.692;9.400;2022-10-16T09:30:17;96962.03;;;21.58;80.63
28927;BME280;16038;47.692;9.400;2022-10-16T09:32:45;96953.59;;;23.16;72.57
28927;BME280;16038;47.692;9.400;2022-10-16T09:35:18;96951.97;;;23.82;70.39
28927;BME280;16038;47.692;9.400;2022-10-16T09:37:47;96955.53;;;23.02;75.12
28927;BME280;16038;47.692;9.400;2022-10-16T09:40:37;96956.38;;;24.18;66.55
28927;BME280;16038;47.692;9.400;2022-10-16T09:45:38;96961.38;;;26.46;55.75
28927;BME280;16038;47.692;9.400;2022-10-16T09:48:11;96951.66;;;25.29;58.77
28927;BME280;16038;47.692;9.400;2022-10-16T09:50:37;96955.25;;;24.64;61.19
28927;BME280;16038;47.692;9.400;2022-10-16T09:53:10;96960.72;;;24.67;60.70
28927;BME280;16038;47.692;9.400;2022-10-16T09:55:36;96957.28;;;24.50;60.58
28927;BME280;16038;47.692;9.400;2022-10-16T09:58:01;96950.28;;;23.34;68.24
28927;BME280;16038;47.692;9.400;2022-10-16T10:00:27;96949.00;;;24.47;63.80
28927;BME280;16038;47.692;9.400;2022-10-16T10:02:54;96973.94;;;26.05;56.51
28927;BME280;16038;47.692;9.400;2022-10-16T10:05:25;96963.69;;;27.22;52.29
28927;BME280;16038;47.692;9.400;2022-10-16T10:08:14;96962.06;;;28.49;49.04
28927;BME280;16038;47.692;9.400;2022-10-16T10:10:42;96961.38;;;24.23;59.85
28927;BME280;16038;47.692;9.400;2022-10-16T10:13:22;96965.44;;;23.07;68.10
28927;BME280;16038;47.692;9.400;2022-10-16T10:15:48;96965.16;;;22.43;71.05
28927;BME280;16038;47.692;9.400;2022-10-16T10:18:18;96956.91;;;24.26;66.48
28927;BME280;16038;47.692;9.400;2022-10-16T10:20:45;96963.69;;;25.70;57.36
28927;BME280;16038;47.692;9.400;2022-10-16T10:23:22;96966.44;;;25.30;58.48
28927;BME280;16038;47.692;9.400;2022-10-16T10:31:26;96940.34;;;22.61;69.56
28927;BME280;16038;47.692;9.400;2022-10-16T10:34:09;96947.66;;;22.42;73.08
28927;BME280;16038;47.692;9.400;2022-10-16T10:36:41;96942.91;;;21.77;75.87
28927;BME280;16038;47.692;9.400;2022-10-16T10:50:18;96938.44;;;21.80;76.96
28927;BME280;16038;47.692;9.400;2022-10-16T11:08:19;96932.41;;;23.82;62.92
28927;BME280;16038;47.692;9.400;2022-10-16T11:10:51;96935.31;;;24.61;62.06
28927;BME280;16038;47.692;9.400;2022-10-16T11:13:44;96939.16;;;24.55;59.91
28927;BME280;16038;47.692;9.400;2022-10-16T11:18:54;96929.91;;;23.72;61.46
28927;BME280;16038;47.692;9.400;2022-10-16T11:21:22;96923.19;;;23.69;63.24
28927;BME280;16038;47.692;9.400;2022-10-16T11:24:16;96920.50;;;22.72;66.85
28927;BME280;16038;47.692;9.400;2022-10-16T11:26:46;96911.63;;;24.40;59.97
28927;BME280;16038;47.692;9.400;2022-10-16T11:29:17;96919.56;;;24.55;57.42
28927;BME280;16038;47.692;9.400;2022-10-16T11:31:56;96915.25;;;23.93;57.94
28927;BME280;16038;47.692;9.400;2022-10-16T11:34:35;96909.56;;;23.58;61.09
28927;BME280;16038;47.692;9.400;2022-10-16T11:37:11;96906.00;;;23.58;61.25
28927;BME280;16038;47.692;9.400;2022-10-16T11:39:38;96898.81;;;23.57;60.29
28927;BME280;16038;47.692;9.400;2022-10-16T11:44:56;96887.53;;;24.78;56.54
28927;BME280;16038;47.692;9.400;2022-10-16T11:47:30;96889.28;;;25.47;52.51
28927;BME280;16038;47.692;9.400;2022-10-16T11:50:27;96888.97;;;25.54;53.69
28927;BME280;16038;47.692;9.400;2022-10-16T11:55:42;96889.91;;;24.89;51.27
28927;BME280;16038;47.692;9.400;2022-10-16T11:58:31;96891.38;;;25.25;50.04
28927;BME280;16038;47.692;9.400;2022-10-16T12:03:47;96881.59;;;25.38;50.93
28927;BME280;16038;47.692;9.400;2022-10-16T12:08:47;96884.16;;;25.55;58.41
28927;BME280;16038;47.692;9.400;2022-10-16T12:11:24;96883.16;;;25.89;59.52
28927;BME280;16038;47.692;9.400;2022-10-16T12:16:50;96878.44;;;25.68;60.79
28927;BME280;16038;47.692;9.400;2022-10-16T12:19:17;96875.00;;;25.64;62.33
28927;BME280;16038;47.692;9.400;2022-10-16T12:21:43;96875.53;;;25.40;62.47
28927;BME280;16038;47.692;9.400;2022-10-16T12:26:57;96870.53;;;25.04;65.08
28927;BME280;16038;47.692;9.400;2022-10-16T12:29:29;96873.84;;;25.11;66.19
28927;BME280;16038;47.692;9.400;2022-10-16T12:31:57;96872.84;;;24.96;66.82
28927;BME280;16038;47.692;9.400;2022-10-16T12:34:27;96870.75;;;24.87;66.65
28927;BME280;16038;47.692;9.400;2022-10-16T12:36:55;96867.56;;;24.32;66.75
28927;BME280;16038;47.692;9.400;2022-10-16T12:39:23;96866.41;;;23.21;72.28
28927;BME280;16038;47.692;9.400;2022-10-16T12:42:04;96866.03;;;22.80;74.76
28927;BME280;16038;47.692;9.400;2022-10-16T12:44:34;96869.66;;;22.51;75.80
28927;BME280;16038;47.692;9.400;2022-10-16T12:47:00;96868.94;;;21.56;77.72
28927;BME280;16038;47.692;9.400;2022-10-16T12:49:34;96863.34;;;21.39;78.40
28927;BME280;16038;47.692;9.400;2022-10-16T12:52:01;96868.78;;;21.10;83.22
28927;BME280;16038;47.692;9.400;2022-10-16T12:54:34;96862.00;;;20.75;83.07
28927;BME280;16038;47.692;9.400;2022-10-16T12:57:12;96863.06;;;20.81;85.37
28927;BME280;16038;47.692;9.400;2022-10-16T13:03:06;96862.44;;;21.10;85.99
28927;BME280;16038;47.692;9.400;2022-10-16T13:11:11;96848.44;;;21.30;83.83
28927;BME280;16038;47.692;9.400;2022-10-16T13:16:51;96850.63;;;21.88;80.78
28927;BME280;16038;47.692;9.400;2022-10-16T13:19:31;96845.22;;;22.26;82.33
28927;BME280;16038;47.692;9.400;2022-10-16T13:30:19;96842.94;;;22.93;76.24
28927;BME280;16038;47.692;9.400;2022-10-16T13:33:13;96851.44;;;23.15;77.05
28927;BME280;16038;47.692;9.400;2022-10-16T13:35:50;96851.53;;;23.37;75.65
28927;BME280;16038;47.692;9.400;2022-10-16T13:38:26;96847.00;;;23.30;77.00
28927;BME280;16038;47.692;9.400;2022-10-16T13:40:57;96841.50;;;23.14;75.18
28927;BME280;16038;47.692;9.400;2022-10-16T13:43:31;96846.72;;;22.86;76.88
28927;BME280;16038;47.692;9.400;2022-10-16T13:46:18;96848.63;;;23.02;78.25
28927;BME280;16038;47.692;9.400;2022-10-16T13:48:44;96836.59;;;23.05;78.68
28927;BME280;16038;47.692;9.400;2022-10-16T13:51:17;96839.91;;;23.00;79.12
28927;BME280;16038;47.692;9.400;2022-10-16T13:53:44;96844.03;;;22.95;79.97
28927;BME280;16038;47.692;9.400;2022-10-16T13:56:20;96840.94;;;23.06;79.43
28927;BME280;16038;47.692;9.400;2022-10-16T13:59:20;96847.03;;;23.01;79.23
28927;BME280;16038;47.692;9.400;2022-10-16T14:01:43;96850.34;;;23.25;76.68
28927;BME280;16038;47.692;9.400;2022-10-16T14:04:12;96848.63;;;23.53;76.31
28927;BME280;16038;47.692;9.400;2022-10-16T14:06:43;96853.41;;;23.65;73.86
28927;BME280;16038;47.692;9.400;2022-10-16T14:11:50;96842.78;;;23.60;73.77
28927;BME280;16038;47.692;9.400;2022-10-16T14:14:19;96848.50;;;23.57;74.60
28927;BME280;16038;47.692;9.400;2022-10-16T14:16:44;96853.44;;;23.53;74.21
28927;BME280;16038;47.692;9.400;2022-10-16T14:19:24;96851.88;;;23.39;77.50
28927;BME280;16038;47.692;9.400;2022-10-16T14:21:51;96843.81;;;23.54;78.45
28927;BME280;16038;47.692;9.400;2022-10-16T14:24:35;96837.44;;;23.53;77.43
28927;BME280;16038;47.692;9.400;2022-10-16T14:27:01;96848.41;;;23.47;78.60
28927;BME280;16038;47.692;9.400;2022-10-16T14:29:29;96837.34;;;23.31;78.24
28927;BME280;16038;47.692;9.400;2022-10-16T14:31:58;96845.75;;;23.18;76.99
28927;BME280;16038;47.692;9.400;2022-10-16T14:34:38;96841.03;;;23.02;78.13
28927;BME280;16038;47.692;9.400;2022-10-16T14:39:32;96848.56;;;22.63;80.88
28927;BME280;16038;47.692;9.400;2022-10-16T14:41:58;96844.28;;;22.46;80.80
28927;BME280;16038;47.692;9.400;2022-10-16T14:44:31;96849.19;;;22.25;83.81
28927;BME280;16038;47.692;9.400;2022-10-16T14:46:57;96847.50;;;22.15;83.13
28927;BME280;16038;47.692;9.400;2022-10-16T14:49:25;96844.56;;;22.06;84.88
28927;BME280;16038;47.692;9.400;2022-10-16T14:51:50;96854.25;;;22.01;85.54
28927;BME280;16038;47.692;9.400;2022-10-16T14:54:18;96852.75;;;21.96;84.91